sensor_id;sensor_type;location;lat;lon;timestamp;pressure;altitude;pressure_sealevel;temperature;humidity
24045;BME280;26257;49.442;8.422;2022-10-16T00:01:09;100219.34;;;20.75;100.00
24045;BME280;26257;49.442;8.422;2022-10-16T00:03:37;100214.09;;;20.72;100.00
24045;BME280;26257;49.442;8.422;2022-10-16T00:06:04;100207.50;;;20.81;100.00
24045;BME280;26257;49.442;8.422;2022-10-16T00:08:29;100191.19;;;20.87;100.00
24045;BME280;26257;49.442;8.422;2022-10-16T00:11:00;100187.44;;;20.91;100.00
24045;BME280;26257;49.442;8.422;2022-10-16T00:13:26;100188.41;;;20.90;100.00
24045;BME280;26257;49.442;8.422;2022-10-16T00:15:55;100181.81;;;20.99;100.00
24045;BME280;26257;49.442;8.422;2022-10-16T00:18:20;100185.34;;;20.99;100.00
24045;BME280;26257;49.442;8.422;2022-10-16T00:20:46;100187.34;;;20.94;100.00
24045;BME280;26257;49.442;8.422;2022-10-16T00:23:11;100212.78;;;20.84;100.00
24045;BME280;26257;49.442;8.422;2022-10-16T00:25:37;100201.25;;;20.56;100.00
24045;BME280;26257;49.442;8.422;2022-10-16T00:28:02;100205.53;;;20.86;100.00
24045;BME280;26257;49.442;8.422;2022-10-16T00:30:27;100198.63;;;20.79;100.00
24045;BME280;26257;49.442;8.422;2022-10-16T00:32:54;100207.22;;;20.88;100.00
24045;BME280;26257;49.442;8.422;2022-10-16T00:35:19;100221.53;;;20.89;100.00
24045;BME280;26257;49.442;8.422;2022-10-16T00:37:45;100211.69;;;20.89;100.00
24045;BME280;26257;49.442;8.422;2022-10-16T00:40:10;100218.22;;;20.82;100.00
24045;BME280;26257;49.442;8.422;2022-10-16T00:42:36;100227.06;;;20.84;100.00
24045;BME280;26257;49.442;8.422;2022-10-16T00:45:02;100225.09;;;20.65;100.00
24045;BME280;26257;49.442;8.422;2022-10-16T00:50:24;100224.16;;;20.66;100.00
24045;BME280;26257;49.442;8.422;2022-10-16T00:52:52;100225.09;;;20.65;100.00
24045;BME280;26257;49.442;8.422;2022-10-16T00:55:19;100221.31;;;20.70;100.00
24045;BME280;26257;49.442;8.422;2022-10-16T00:57:48;100215.94;;;20.70;100.00
24045;BME280;26257;49.442;8.422;2022-10-16T01:00:20;100213.13;;;20.75;100.00
24045;BME280;26257;49.442;8.422;2022-10-16T01:02:58;100222.97;;;20.99;100.00
24045;BME280;26257;49.442;8.422;2022-10-16T01:05:33;100218.69;;;20.69;100.00
24045;BME280;26257;49.442;8.422;2022-10-16T01:08:18;100212.13;;;20.77;100.00
24045;BME280;26257;49.442;8.422;2022-10-16T01:10:56;100224.72;;;21.00;100.00
24045;BME280;26257;49.442;8.422;2022-10-16T01:13:44;100230.34;;;20.68;100.00
24045;BME280;26257;49.442;8.422;2022-10-16T01:19:09;100241.16;;;20.91;100.00
24045;BME280;26257;49.442;8.422;2022-10-16T01:21:43;100246.16;;;20.77;100.00
24045;BME280;26257;49.442;8.422;2022-10-16T01:24:31;100232.28;;;20.89;100.00
24045;BME280;26257;49.442;8.422;2022-10-16T01:29:48;100238.28;;;20.71;100.00
24045;BME280;26257;49.442;8.422;2022-10-16T01:32:23;100233.06;;;20.92;100.00
24045;BME280;26257;49.442;8.422;2022-10-16T01:34:55;100236.13;;;20.82;100.00
24045;BME280;26257;49.442;8.422;2022-10-16T01:37:48;100235.25;;;20.81;100.00
24045;BME280;26257;49.442;8.422;2022-10-16T01:40:18;100246.66;;;20.88;100.00
24045;BME280;26257;49.442;8.422;2022-10-16T01:42:48;100252.03;;;20.62;100.00
24045;BME280;26257;49.442;8.422;2022-10-16T01:45:16;100254.50;;;20.68;100.00
24045;BME280;26257;49.442;8.422;2022-10-16T01:47:44;100258.69;;;20.50;100.00
24045;BME280;26257;49.442;8.422;2022-10-16T01:50:12;100253.69;;;20.40;100.00
24045;BME280;26257;49.442;8.422;2022-10-16T01:52:42;100250.47;;;20.28;100.00
24045;BME280;26257;49.442;8.422;2022-10-16T01:55:10;100246.56;;;20.39;100.00
24045;BME280;26257;49.442;8.422;2022-10-16T01:57:40;100248.03;;;20.49;100.00
24045;BME280;26257;49.442;8.422;2022-10-16T02:00:11;100244.28;;;20.53;100.00
24045;BME280;26257;49.442;8.422;2022-10-16T02:02:39;100245.38;;;20.47;100.00
24045;BME280;26257;49.442;8.422;2022-10-16T02:07:38;100239.84;;;20.25;100.00
24045;BME280;26257;49.442;8.422;2022-10-16T02:10:04;100241.50;;;20.29;100.00
24045;BME280;26257;49.442;8.422;2022-10-16T02:12:33;100241.50;;;20.29;100.00
24045;BME280;26257;49.442;8.422;2022-10-16T02:15:01;100246.19;;;20.21;100.00
24045;BME280;26257;49.442;8.422;2022-10-16T02:17:27;100248.75;;;20.26;100.00
24045;BME280;26257;49.442;8.422;2022-10-16T02:19:54;100246.34;;;20.17;100.00
24045;BME280;26257;49.442;8.422;2022-10-16T02:22:43;100252.59;;;20.17;100.00
24045;BME280;26257;49.442;8.422;2022-10-16T02:25:25;100239.31;;;20.13;100.00
24045;BME280;26257;49.442;8.422;2022-10-16T02:30:29;100239.97;;;20.49;100.00
24045;BME280;26257;49.442;8.422;2022-10-16T02:32:58;100237.28;;;20.49;100.00
24045;BME280;26257;49.442;8.422;2022-10-16T02:35:25;100249.38;;;20.62;100.00
24045;BME280;26257;49.442;8.422;2022-10-16T02:37:52;100237.19;;;20.52;100.00
24045;BME280;26257;49.442;8.422;2022-10-16T02:40:19;100239.53;;;20.35;100.00
24045;BME280;26257;49.442;8.422;2022-10-16T02:42:50;100234.06;;;20.38;100.00
24045;BME280;26257;49.442;8.422;2022-10-16T02:45:17;100237.38;;;20.46;100.00
24045;BME280;26257;49.442;8.422;2022-10-16T02:47:42;100244.03;;;20.34;100.00
24045;BME280;26257;49.442;8.422;2022-10-16T03:08:52;100297.03;;;19.37;100.00
24045;BME280;26257;49.442;8.422;2022-10-16T03:11:18;100277.34;;;19.68;100.00
24045;BME280;26257;49.442;8.422;2022-10-16T03:13:43;100264.06;;;19.65;100.00
24045;BME280;26257;49.442;8.422;2022-10-16T03:16:09;100262.16;;;19.69;100.00
24045;BME280;26257;49.442;8.422;2022-10-16T03:18:34;100265.94;;;19.62;100.00
24045;BME280;26257;49.442;8.422;2022-10-16T03:21:00;100262.34;;;19.63;100.00
24045;BME280;26257;49.442;8.422;2022-10-16T03:23:26;100262.88;;;19.74;100.00
24045;BME280;26257;49.442;8.422;2022-10-16T03:25:51;100264.38;;;19.84;100.00
24045;BME280;26257;49.442;8.422;2022-10-16T03:28:17;100257.34;;;19.80;100.00
24045;BME280;26257;49.442;8.422;2022-10-16T03:30:43;100254.59;;;19.83;100.00
24045;BME280;26257;49.442;8.422;2022-10-16T03:33:08;100252.78;;;19.84;100.00
24045;BME280;26257;49.442;8.422;2022-10-16T03:35:34;100250.78;;;19.90;100.00
24045;BME280;26257;49.442;8.422;2022-10-16T03:37:59;100250.94;;;20.13;100.00
24045;BME280;26257;49.442;8.422;2022-10-16T03:40:25;100260.19;;;20.03;100.00
24045;BME280;26257;49.442;8.422;2022-10-16T03:42:50;100254.34;;;20.18;100.00
24045;BME280;26257;49.442;8.422;2022-10-16T03:45:16;100259.59;;;20.21;100.00
24045;BME280;26257;49.442;8.422;2022-10-16T03:47:41;100267.44;;;20.29;100.00
24045;BME280;26257;49.442;8.422;2022-10-16T03:50:07;100261.38;;;20.22;100.00
24045;BME280;26257;49.442;8.422;2022-10-16T03:52:32;100266.75;;;20.22;100.00
24045;BME280;26257;49.442;8.422;2022-10-16T03:54:58;100277.09;;;20.35;100.00
24045;BME280;26257;49.442;8.422;2022-10-16T03:57:24;100264.56;;;20.35;100.00
24045;BME280;26257;49.442;8.422;2022-10-16T03:59:49;100282.38;;;20.38;100.00
24045;BME280;26257;49.442;8.422;2022-10-16T04:02:15;100269.78;;;20.40;100.00
24045;BME280;26257;49.442;8.422;2022-10-16T04:04:40;100277.00;;;20.38;100.00
24045;BME280;26257;49.442;8.422;2022-10-16T04:07:05;100272.53;;;20.38;100.00
24045;BME280;26257;49.442;8.422;2022-10-16T04:09:31;100269.13;;;20.33;100.00
24045;BME280;26257;49.442;8.422;2022-10-16T04:11:56;100278.53;;;20.17;100.00
24045;BME280;26257;49.442;8.422;2022-10-16T04:14:22;100271.84;;;20.31;100.00
24045;BME280;26257;49.442;8.422;2022-10-16T04:16:47;100284.69;;;20.20;100.00
24045;BME280;26257;49.442;8.422;2022-10-16T04:19:13;100287.38;;;20.20;100.00
24045;BME280;26257;49.442;8.422;2022-10-16T04:21:38;100300.78;;;20.20;100.00
24045;BME280;26257;49.442;8.422;2022-10-16T04:24:04;100298.97;;;20.21;100.00
24045;BME280;26257;49.442;8.422;2022-10-16T04:26:30;100302.06;;;20.37;100.00
24045;BME280;26257;49.442;8.422;2022-10-16T04:28:55;100307.59;;;20.32;100.00
24045;BME280;26257;49.442;8.422;2022-10-16T04:31:21;100289.50;;;20.39;100.00
24045;BME280;26257;49.442;8.422;2022-10-16T04:33:47;100288.66;;;20.37;100.00
24045;BME280;26257;49.442;8.422;2022-10-16T04:36:12;100302.16;;;20.33;100.00
24045;BME280;26257;49.442;8.422;2022-10-16T04:38:38;100302.16;;;20.33;100.00
24045;BME280;26257;49.442;8.422;2022-10-16T04:41:05;100295.38;;;20.22;100.00
24045;BME280;26257;49.442;8.422;2022-10-16T04:43:32;100288.22;;;20.22;100.00
24045;BME280;26257;49.442;8.422;2022-10-16T04:45:58;100286.06;;;20.33;100.00
24045;BME280;26257;49.442;8.422;2022-10-16T04:48:23;100287.09;;;20.29;100.00
24045;BME280;26257;49.442;8.422;2022-10-16T04:50:49;100275.25;;;20.37;100.00
24045;BME280;26257;49.442;8.422;2022-10-16T04:53:14;100282.94;;;20.19;100.00
24045;BME280;26257;49.442;8.422;2022-10-16T04:55:41;100283.84;;;20.18;100.00
24045;BME280;26257;49.442;8.422;2022-10-16T04:58:07;100263.28;;;19.91;100.00
24045;BME280;26257;49.442;8.422;2022-10-16T05:00:33;100272.91;;;20.26;100.00
24045;BME280;26257;49.442;8.422;2022-10-16T05:02:58;100286.63;;;20.15;100.00
24045;BME280;26257;49.442;8.422;2022-10-16T05:05:26;100289.06;;;19.95;100.00
24045;BME280;26257;49.442;8.422;2022-10-16T05:07:52;100291.16;;;19.84;100.00
24045;BME280;26257;49.442;8.422;2022-10-16T05:10:17;100292.94;;;19.85;100.00
24045;BME280;26257;49.442;8.422;2022-10-16T05:12:43;100280.66;;;19.78;100.00
24045;BME280;26257;49.442;8.422;2022-10-16T05:15:09;100284.53;;;19.68;100.00
24045;BME280;26257;49.442;8.422;2022-10-16T05:17:34;100286.38;;;19.66;100.00
24045;BME280;26257;49.442;8.422;2022-10-16T05:20:00;100280.91;;;19.69;100.00
24045;BME280;26257;49.442;8.422;2022-10-16T05:22:25;100281.75;;;19.71;100.00
24045;BME280;26257;49.442;8.422;2022-10-16T05:24:51;100269.69;;;19.86;100.00
24045;BME280;26257;49.442;8.422;2022-10-16T05:27:16;100286.84;;;19.80;100.00
24045;BME280;26257;49.442;8.422;2022-10-16T05:29:48;100289.34;;;19.86;100.00
24045;BME280;26257;49.442;8.422;2022-10-16T05:32:15;100292.97;;;19.54;100.00
24045;BME280;26257;49.442;8.422;2022-10-16T05:34:40;100270.09;;;19.72;100.00
24045;BME280;26257;49.442;8.422;2022-10-16T05:37:06;100275.00;;;19.58;100.00
24045;BME280;26257;49.442;8.422;2022-10-16T05:39:32;100278.47;;;19.61;100.00
24045;BME280;26257;49.442;8.422;2022-10-16T05:41:57;100290.00;;;19.65;100.00
24045;BME280;26257;49.442;8.422;2022-10-16T05:44:22;100305.03;;;19.69;100.00
24045;BME280;26257;49.442;8.422;2022-10-16T05:46:48;100322.31;;;19.59;100.00
24045;BME280;26257;49.442;8.422;2022-10-16T05:49:13;100321.94;;;19.71;100.00
24045;BME280;26257;49.442;8.422;2022-10-16T05:51:39;100308.94;;;19.88;100.00
24045;BME280;26257;49.442;8.422;2022-10-16T05:54:04;100299.44;;;19.77;100.00
24045;BME280;26257;49.442;8.422;2022-10-16T05:56:30;100303.97;;;19.76;100.00
24045;BME280;26257;49.442;8.422;2022-10-16T05:58:55;100309.69;;;19.93;100.00
24045;BME280;26257;49.442;8.422;2022-10-16T06:01:21;100307.56;;;19.73;100.00
24045;BME280;26257;49.442;8.422;2022-10-16T06:03:52;100308.78;;;19.63;100.00
24045;BME280;26257;49.442;8.422;2022-10-16T06:06:23;100319.38;;;19.68;100.00
24045;BME280;26257;49.442;8.422;2022-10-16T06:08:51;100321.97;;;20.00;100.00
24045;BME280;26257;49.442;8.422;2022-10-16T06:11:20;100331.22;;;20.19;100.00
24045;BME280;26257;49.442;8.422;2022-10-16T06:13:53;100338.53;;;20.14;100.00
24045;BME280;26257;49.442;8.422;2022-10-16T06:16:19;100334.56;;;20.27;100.00
24045;BME280;26257;49.442;8.422;2022-10-16T06:18:45;100344.72;;;20.16;100.00
24045;BME280;26257;49.442;8.422;2022-10-16T06:21:14;100332.28;;;20.14;100.00
24045;BME280;26257;49.442;8.422;2022-10-16T06:23:41;100332.97;;;20.20;100.00
24045;BME280;26257;49.442;8.422;2022-10-16T06:26:12;100333.91;;;20.19;100.00
24045;BME280;26257;49.442;8.422;2022-10-16T06:28:38;100343.53;;;20.26;100.00
24045;BME280;26257;49.442;8.422;2022-10-16T06:31:05;100330.25;;;20.50;100.00
24045;BME280;26257;49.442;8.422;2022-10-16T06:33:32;100335.44;;;20.56;100.00
24045;BME280;26257;49.442;8.422;2022-10-16T06:38:27;100338.84;;;20.61;100.00
24045;BME280;26257;49.442;8.422;2022-10-16T06:40:53;100343.09;;;20.68;100.00
24045;BME280;26257;49.442;8.422;2022-10-16T06:43:18;100348.16;;;20.77;100.00
24045;BME280;26257;49.442;8.422;2022-10-16T06:45:53;100355.75;;;20.64;100.00
24045;BME280;26257;49.442;8.422;2022-10-16T06:48:19;100361.63;;;20.75;100.00
24045;BME280;26257;49.442;8.422;2022-10-16T06:50:58;100361.84;;;20.69;100.00
24045;BME280;26257;49.442;8.422;2022-10-16T06:53:24;100370.63;;;20.74;100.00
24045;BME280;26257;49.442;8.422;2022-10-16T06:55:50;100384.78;;;21.06;100.00
24045;BME280;26257;49.442;8.422;2022-10-16T06:58:16;100387.72;;;20.98;100.00
24045;BME280;26257;49.442;8.422;2022-10-16T07:00:41;100382.66;;;20.89;100.00
24045;BME280;26257;49.442;8.422;2022-10-16T07:03:07;100382.97;;;20.80;100.00
24045;BME280;26257;49.442;8.422;2022-10-16T07:05:39;100382.44;;;20.69;100.00
24045;BME280;26257;49.442;8.422;2022-10-16T07:08:05;100383.59;;;20.88;100.00
24045;BME280;26257;49.442;8.422;2022-10-16T07:10:32;100388.56;;;21.00;100.00
24045;BME280;26257;49.442;8.422;2022-10-16T07:12:57;100407.91;;;21.11;100.00
24045;BME280;26257;49.442;8.422;2022-10-16T07:15:24;100403.47;;;20.82;100.00
24045;BME280;26257;49.442;8.422;2022-10-16T07:17:50;100413.66;;;20.71;100.00
24045;BME280;26257;49.442;8.422;2022-10-16T07:20:15;100407.66;;;20.63;100.00
24045;BME280;26257;49.442;8.422;2022-10-16T07:22:41;100419.19;;;20.67;100.00
24045;BME280;26257;49.442;8.422;2022-10-16T07:25:06;100413.59;;;20.73;100.00
24045;BME280;26257;49.442;8.422;2022-10-16T07:27:32;100418.69;;;20.82;100.00
24045;BME280;26257;49.442;8.422;2022-10-16T07:29:57;100411.91;;;20.98;100.00
24045;BME280;26257;49.442;8.422;2022-10-16T07:32:23;100417.47;;;20.92;100.00
24045;BME280;26257;49.442;8.422;2022-10-16T07:34:51;100427.28;;;20.93;100.00
24045;BME280;26257;49.442;8.422;2022-10-16T07:37:16;100425.09;;;21.06;100.00
24045;BME280;26257;49.442;8.422;2022-10-16T07:39:42;100428.06;;;21.24;100.00
24045;BME280;26257;49.442;8.422;2022-10-16T07:42:07;100430.94;;;21.18;100.00
24045;BME280;26257;49.442;8.422;2022-10-16T07:44:33;100448.22;;;21.11;100.00
24045;BME280;26257;49.442;8.422;2022-10-16T07:46:58;100438.81;;;21.24;100.00
24045;BME280;26257;49.442;8.422;2022-10-16T07:49:24;100443.84;;;21.60;100.00
24045;BME280;26257;49.442;8.422;2022-10-16T07:51:49;100443.13;;;21.54;100.00
24045;BME280;26257;49.442;8.422;2022-10-16T07:54:15;100445.81;;;21.54;100.00
24045;BME280;26257;49.442;8.422;2022-10-16T07:56:40;100442.47;;;21.73;100.00
24045;BME280;26257;49.442;8.422;2022-10-16T07:59:06;100443.25;;;21.76;100.00
24045;BME280;26257;49.442;8.422;2022-10-16T08:01:31;100444.47;;;21.68;100.00
24045;BME280;26257;49.442;8.422;2022-10-16T08:03:57;100445.63;;;21.61;100.00
24045;BME280;26257;49.442;8.422;2022-10-16T08:06:22;100441.97;;;21.88;100.00
24045;BME280;26257;49.442;8.422;2022-10-16T08:08:48;100452.78;;;21.85;100.00
24045;BME280;26257;49.442;8.422;2022-10-16T08:11:14;100456.97;;;21.69;100.00
24045;BME280;26257;49.442;8.422;2022-10-16T08:13:40;100449.03;;;21.39;100.00
24045;BME280;26257;49.442;8.422;2022-10-16T08:16:06;100458.16;;;21.60;100.00
24045;BME280;26257;49.442;8.422;2022-10-16T08:18:38;100456.63;;;21.53;100.00
24045;BME280;26257;49.442;8.422;2022-10-16T08:21:05;100461.03;;;21.56;100.00
24045;BME280;26257;49.442;8.422;2022-10-16T08:23:31;100457.28;;;21.60;100.00
24045;BME280;26257;49.442;8.422;2022-10-16T08:26:03;100463.00;;;21.50;100.00
24045;BME280;26257;49.442;8.422;2022-10-16T08:28:29;100479.91;;;21.79;100.00
24045;BME280;26257;49.442;8.422;2022-10-16T08:30:55;100474.31;;;21.85;100.00
24045;BME280;26257;49.442;8.422;2022-10-16T08:33:22;100468.91;;;21.85;100.00
24045;BME280;26257;49.442;8.422;2022-10-16T08:35:53;100460.78;;;21.62;100.00
24045;BME280;26257;49.442;8.422;2022-10-16T08:38:19;100468.19;;;22.06;100.00
24045;BME280;26257;49.442;8.422;2022-10-16T08:40:44;100462.00;;;22.27;100.00
24045;BME280;26257;49.442;8.422;2022-10-16T08:43:31;100473.34;;;22.37;100.00
24045;BME280;26257;49.442;8.422;2022-10-16T08:46:11;100524.66;;;22.07;100.00
24045;BME280;26257;49.442;8.422;2022-10-16T08:48:49;100572.75;;;21.36;100.00
24045;BME280;26257;49.442;8.422;2022-10-16T09:14:37;100526.75;;;23.60;100.00
24045;BME280;26257;49.442;8.422;2022-10-16T09:19:54;100534.25;;;24.36;99.94
24045;BME280;26257;49.442;8.422;2022-10-16T09:22:25;100532.19;;;24.61;97.14
24045;BME280;26257;49.442;8.422;2022-10-16T09:24:52;100531.47;;;24.58;96.05
24045;BME280;26257;49.442;8.422;2022-10-16T09:27:18;100532.88;;;24.46;99.66
24045;BME280;26257;49.442;8.422;2022-10-16T09:29:44;100535.91;;;24.77;99.68
24045;BME280;26257;49.442;8.422;2022-10-16T09:32:19;100530.03;;;26.64;85.39
24045;BME280;26257;49.442;8.422;2022-10-16T09:34:48;100519.47;;;27.23;76.00
24045;BME280;26257;49.442;8.422;2022-10-16T09:37:18;100518.66;;;27.68;75.66
24045;BME280;26257;49.442;8.422;2022-10-16T09:39:46;100522.78;;;26.97;75.05
24045;BME280;26257;49.442;8.422;2022-10-16T09:42:19;100523.31;;;26.88;74.50
24045;BME280;26257;49.442;8.422;2022-10-16T09:44:51;100529.28;;;26.45;76.73
24045;BME280;26257;49.442;8.422;2022-10-16T09:47:20;100529.44;;;26.42;74.71
24045;BME280;26257;49.442;8.422;2022-10-16T09:52:21;100536.81;;;26.22;79.49
24045;BME280;26257;49.442;8.422;2022-10-16T09:55:03;100524.78;;;25.94;81.30
24045;BME280;26257;49.442;8.422;2022-10-16T09:57:47;100536.94;;;26.02;77.57
24045;BME280;26257;49.442;8.422;2022-10-16T10:00:16;100538.78;;;25.85;79.61
24045;BME280;26257;49.442;8.422;2022-10-16T10:02:43;100538.00;;;25.28;80.58
24045;BME280;26257;49.442;8.422;2022-10-16T10:05:24;100542.97;;;25.18;85.30
24045;BME280;26257;49.442;8.422;2022-10-16T10:08:02;100540.06;;;25.04;85.17
24045;BME280;26257;49.442;8.422;2022-10-16T10:10:42;100539.69;;;25.12;84.14
24045;BME280;26257;49.442;8.422;2022-10-16T10:13:21;100543.16;;;25.87;81.57
24045;BME280;26257;49.442;8.422;2022-10-16T10:15:50;100541.25;;;26.73;76.02
24045;BME280;26257;49.442;8.422;2022-10-16T10:18:20;100532.19;;;27.84;70.18
24045;BME280;26257;49.442;8.422;2022-10-16T10:21:00;100535.09;;;27.81;67.33
24045;BME280;26257;49.442;8.422;2022-10-16T10:23:28;100529.59;;;27.35;69.86
24045;BME280;26257;49.442;8.422;2022-10-16T10:39:46;100528.63;;;28.13;63.54
24045;BME280;26257;49.442;8.422;2022-10-16T10:47:47;100528.50;;;29.01;61.61
24045;BME280;26257;49.442;8.422;2022-10-16T10:59:02;100512.25;;;33.92;40.66
24045;BME280;26257;49.442;8.422;2022-10-16T11:07:02;100515.09;;;36.02;35.97
24045;BME280;26257;49.442;8.422;2022-10-16T11:09:45;100515.91;;;36.41;34.07
24045;BME280;26257;49.442;8.422;2022-10-16T11:15:29;100538.97;;;35.33;35.21
24045;BME280;26257;49.442;8.422;2022-10-16T11:18:06;100544.91;;;34.98;36.82
24045;BME280;26257;49.442;8.422;2022-10-16T11:21:04;100533.75;;;35.79;35.27
24045;BME280;26257;49.442;8.422;2022-10-16T11:23:38;100534.66;;;35.40;37.49
24045;BME280;26257;49.442;8.422;2022-10-16T11:26:12;100538.41;;;34.28;40.06
24045;BME280;26257;49.442;8.422;2022-10-16T11:28:49;100543.56;;;32.69;42.17
24045;BME280;26257;49.442;8.422;2022-10-16T11:34:22;100534.84;;;32.97;41.57
24045;BME280;26257;49.442;8.422;2022-10-16T11:37:04;100517.41;;;36.07;36.19
24045;BME280;26257;49.442;8.422;2022-10-16T11:39:31;100534.91;;;32.51;43.41
24045;BME280;26257;49.442;8.422;2022-10-16T11:42:18;100544.22;;;29.91;51.72
24045;BME280;26257;49.442;8.422;2022-10-16T11:47:26;100543.59;;;28.34;61.85
24045;BME280;26257;49.442;8.422;2022-10-16T11:49:57;100554.09;;;28.26;63.13
24045;BME280;26257;49.442;8.422;2022-10-16T11:52:30;100542.09;;;28.44;61.49
24045;BME280;26257;49.442;8.422;2022-10-16T11:55:14;100547.03;;;27.31;70.37
24045;BME280;26257;49.442;8.422;2022-10-16T11:57:44;100545.56;;;27.57;68.99
24045;BME280;26257;49.442;8.422;2022-10-16T12:00:54;100543.56;;;26.81;73.04
24045;BME280;26257;49.442;8.422;2022-10-16T12:03:33;100545.69;;;26.07;78.22
24045;BME280;26257;49.442;8.422;2022-10-16T12:06:46;100547.31;;;26.11;79.10
24045;BME280;26257;49.442;8.422;2022-10-16T12:08:52;100543.47;;;25.81;83.02
24045;BME280;26257;49.442;8.422;2022-10-16T12:16:38;100542.53;;;25.46;85.12
24045;BME280;26257;49.442;8.422;2022-10-16T12:19:19;100542.13;;;25.90;84.28
24045;BME280;26257;49.442;8.422;2022-10-16T12:21:45;100537.50;;;25.74;84.88
24045;BME280;26257;49.442;8.422;2022-10-16T12:24:34;100531.31;;;26.24;83.25
24045;BME280;26257;49.442;8.422;2022-10-16T12:27:01;100534.13;;;26.22;83.33
24045;BME280;26257;49.442;8.422;2022-10-16T12:29:32;100530.44;;;26.41;80.46
24045;BME280;26257;49.442;8.422;2022-10-16T12:31:58;100526.56;;;26.62;77.09
24045;BME280;26257;49.442;8.422;2022-10-16T12:34:46;100524.69;;;26.29;78.37
24045;BME280;26257;49.442;8.422;2022-10-16T12:37:35;100531.75;;;26.49;78.51
24045;BME280;26257;49.442;8.422;2022-10-16T12:40:13;100533.44;;;26.34;79.72
24045;BME280;26257;49.442;8.422;2022-10-16T12:42:39;100534.44;;;26.16;81.11
24045;BME280;26257;49.442;8.422;2022-10-16T12:45:24;100519.75;;;26.03;81.65
24045;BME280;26257;49.442;8.422;2022-10-16T12:47:52;100519.41;;;25.58;84.47
24045;BME280;26257;49.442;8.422;2022-10-16T12:50:29;100518.03;;;26.19;82.10
24045;BME280;26257;49.442;8.422;2022-10-16T12:52:59;100527.03;;;26.53;81.15
24045;BME280;26257;49.442;8.422;2022-10-16T12:55:26;100515.06;;;27.68;73.52
24045;BME280;26257;49.442;8.422;2022-10-16T12:58:31;100513.94;;;28.01;68.65
24045;BME280;26257;49.442;8.422;2022-10-16T13:03:58;100520.41;;;28.43;66.25
24045;BME280;26257;49.442;8.422;2022-10-16T13:07:02;100515.88;;;28.57;65.35
24045;BME280;26257;49.442;8.422;2022-10-16T13:12:53;100519.53;;;27.69;67.81
24045;BME280;26257;49.442;8.422;2022-10-16T13:49:27;100530.59;;;25.86;79.83
24045;BME280;26257;49.442;8.422;2022-10-16T13:51:58;100539.47;;;25.71;80.15
24045;BME280;26257;49.442;8.422;2022-10-16T13:54:26;100535.72;;;25.73;82.06
24045;BME280;26257;49.442;8.422;2022-10-16T13:57:04;100532.97;;;25.75;81.12
24045;BME280;26257;49.442;8.422;2022-10-16T13:59:38;100536.97;;;25.49;82.31
24045;BME280;26257;49.442;8.422;2022-10-16T14:02:27;100532.78;;;25.61;83.04
24045;BME280;26257;49.442;8.422;2022-10-16T14:04:54;100527.84;;;25.69;81.68
24045;BME280;26257;49.442;8.422;2022-10-16T14:07:26;100531.34;;;25.54;84.71
24045;BME280;26257;49.442;8.422;2022-10-16T14:09:53;100537.16;;;25.45;85.46
24045;BME280;26257;49.442;8.422;2022-10-16T14:12:19;100550.78;;;25.43;85.70
24045;BME280;26257;49.442;8.422;2022-10-16T14:14:48;100545.59;;;25.39;84.56
24045;BME280;26257;49.442;8.422;2022-10-16T14:17:19;100551.81;;;25.03;87.71
24045;BME280;26257;49.442;8.422;2022-10-16T14:19:51;100546.22;;;25.08;87.20
24045;BME280;26257;49.442;8.422;2022-10-16T14:22:38;100557.16;;;25.24;85.26
24045;BME280;26257;49.442;8.422;2022-10-16T14:27:44;100536.97;;;25.31;86.03
24045;BME280;26257;49.442;8.422;2022-10-16T14:32:41;100547.81;;;24.93;89.24
24045;BME280;26257;49.442;8.422;2022-10-16T14:35:35;100547.38;;;25.02;89.39
24045;BME280;26257;49.442;8.422;2022-10-16T14:38:03;100541.47;;;24.74;91.12
24045;BME280;26257;49.442;8.422;2022-10-16T14:40:31;100549.13;;;24.65;91.95
24045;BME280;26257;49.442;8.422;2022-10-16T14:42:58;100556.50;;;24.81;91.74
24045;BME280;26257;49.442;8.422;2022-10-16T14:45:27;100551.03;;;25.01;89.96
24045;BME280;26257;49.442;8.422;2022-10-16T14:47:56;100557.16;;;24.86;90.03
24045;BME280;26257;49.442;8.422;2022-10-16T14:50:23;100552.78;;;25.02;89.67
24045;BME280;26257;49.442;8.422;2022-10-16T14:52:48;100556.28;;;25.04;88.48
24045;BME280;26257;49.442;8.422;2022-10-16T14:55:14;100552.31;;;24.93;88.28
24045;BME280;26257;49.442;8.422;2022-10-16T14:57:40;100550.28;;;25.16;87.37
24045;BME280;26257;49.442;8.422;2022-10-16T15:00:28;100544.81;;;25.37;84.59
24045;BME280;26257;49.442;8.422;2022-10-16T15:02:54;100545.00;;;25.51;82.55
24045;BME280;26257;49.442;8.422;2022-10-16T15:05:22;100545.22;;;25.82;80.04
24045;BME280;26257;49.442;8.422;2022-10-16T15:07:49;100551.06;;;26.26;76.41
24045;BME280;26257;49.442;8.422;2022-10-16T15:10:16;100551.16;;;26.57;74.14
24045;BME280;26257;49.442;8.422;2022-10-16T15:12:42;100545.00;;;26.88;71.46
24045;BME280;26257;49.442;8.422;2022-10-16T15:17:51;100558.59;;;26.54;70.78
24045;BME280;26257;49.442;8.422;2022-10-16T15:20:19;100558.94;;;26.48;71.21
24045;BME280;26257;49.442;8.422;2022-10-16T15:22:44;100563.25;;;26.34;72.79
24045;BME280;26257;49.442;8.422;2022-10-16T15:27:51;100558.44;;;26.05;73.26
24045;BME280;26257;49.442;8.422;2022-10-16T15:30:16;100559.88;;;25.78;76.44
24045;BME280;26257;49.442;8.422;2022-10-16T15:32:41;100565.34;;;26.12;73.01
24045;BME280;26257;49.442;8.422;2022-10-16T15:35:08;100559.84;;;26.14;72.97
24045;BME280;26257;49.442;8.422;2022-10-16T15:37:34;100560.38;;;26.38;71.46